createdAt,value
2019-05-20T00:01:41.411Z,30.30
2019-05-20T00:04:09.716Z,26.17
2019-05-20T00:06:37.997Z,28.13
2019-05-20T00:09:06.473Z,28.20
2019-05-20T00:11:34.972Z,26.68
2019-05-20T00:14:03.256Z,30.62
2019-05-20T00:16:31.541Z,27.80
2019-05-20T00:18:59.870Z,36.07
2019-05-20T00:21:28.180Z,29.53
2019-05-20T00:23:56.465Z,28.47
2019-05-20T00:26:25.793Z,25.68
2019-05-20T00:28:54.088Z,27.40
2019-05-20T00:31:22.450Z,27.60
2019-05-20T00:33:50.749Z,27.30
2019-05-20T00:36:19.056Z,25.08
2019-05-20T00:38:49.017Z,28.37
2019-05-20T00:41:17.333Z,24.95
2019-05-20T00:43:45.630Z,30.62
2019-05-20T00:46:13.913Z,31.70
2019-05-20T00:48:42.209Z,28.47
2019-05-20T00:51:10.504Z,24.43
2019-05-20T00:53:39.649Z,26.35
2019-05-20T00:56:07.946Z,32.73
2019-05-20T00:58:36.294Z,32.23
2019-05-20T01:01:04.853Z,33.17
2019-05-20T01:03:33.132Z,30.20
2019-05-20T01:06:01.419Z,30.23
2019-05-20T01:08:29.724Z,37.30
2019-05-20T01:10:58.013Z,33.57
2019-05-20T01:13:26.341Z,33.17
2019-05-20T01:15:54.648Z,31.65
2019-05-20T01:18:22.917Z,31.43
2019-05-20T01:20:52.979Z,30.97
2019-05-20T01:23:21.253Z,34.20
2019-05-20T01:25:49.557Z,27.33
2019-05-20T01:28:17.865Z,29.93
2019-05-20T01:30:46.152Z,39.03
2019-05-20T01:33:14.650Z,33.27
2019-05-20T01:35:42.922Z,25.00
2019-05-20T01:38:11.212Z,26.17
2019-05-20T01:40:39.504Z,26.40
2019-05-20T01:43:07.790Z,26.60
2019-05-20T01:45:36.080Z,28.97
2019-05-20T01:48:04.402Z,26.00
2019-05-20T01:50:32.735Z,30.93
2019-05-20T01:53:01.041Z,26.60
2019-05-20T01:55:29.350Z,27.93
2019-05-20T01:57:57.668Z,25.03
2019-05-20T02:00:26.023Z,26.45
2019-05-20T02:02:54.315Z,34.60
2019-05-20T02:05:22.609Z,29.00
2019-05-20T02:07:50.901Z,26.07
2019-05-20T02:10:19.347Z,22.10
2019-05-20T02:12:47.653Z,22.40
2019-05-20T02:15:29.380Z,31.60
2019-05-20T02:17:57.695Z,23.70
2019-05-20T02:20:25.977Z,22.40
2019-05-20T02:22:55.899Z,27.70
2019-05-20T02:25:24.186Z,24.97
2019-05-20T02:27:52.527Z,25.30
2019-05-20T02:30:20.810Z,22.50
2019-05-20T02:32:49.088Z,22.80
2019-05-20T02:35:17.381Z,23.90
2019-05-20T02:37:45.664Z,32.93
2019-05-20T02:40:14.227Z,23.12
2019-05-20T02:42:42.518Z,26.33
2019-05-20T02:45:10.882Z,25.67
2019-05-20T02:47:39.185Z,24.67
2019-05-20T02:50:07.731Z,27.98
2019-05-20T02:52:36.018Z,30.60
2019-05-20T02:55:06.138Z,23.70
2019-05-20T02:57:34.424Z,27.80
2019-05-20T03:00:03.145Z,28.20
2019-05-20T03:02:31.475Z,24.60
2019-05-20T03:04:59.739Z,27.20
2019-05-20T03:07:28.105Z,32.60
2019-05-20T03:09:56.419Z,27.83
2019-05-20T03:12:24.703Z,21.75
2019-05-20T03:14:52.999Z,27.40
2019-05-20T03:17:21.293Z,22.13
2019-05-20T03:19:49.586Z,31.90
2019-05-20T03:22:17.892Z,26.43
2019-05-20T03:24:46.197Z,23.77
2019-05-20T03:27:14.480Z,28.45
2019-05-20T03:29:42.772Z,25.68
2019-05-20T03:32:11.229Z,30.90
2019-05-20T03:34:47.725Z,25.77
2019-05-20T03:37:09.548Z,38.70
2019-05-20T03:39:37.856Z,27.50
2019-05-20T03:42:06.134Z,32.90
2019-05-20T03:44:34.450Z,32.63
2019-05-20T03:47:02.764Z,42.48
2019-05-20T03:49:31.064Z,43.93
2019-05-20T03:51:59.360Z,26.30
2019-05-20T03:54:27.654Z,42.70
2019-05-20T03:56:55.963Z,34.73
2019-05-20T03:59:24.256Z,44.50
2019-05-20T04:02:25.685Z,30.32
2019-05-20T04:05:02.517Z,32.93
2019-05-20T04:07:23.995Z,41.30
2019-05-20T04:09:52.316Z,39.33
2019-05-20T04:12:20.629Z,38.60
2019-05-20T04:14:48.925Z,37.80
2019-05-20T04:17:17.218Z,35.55
2019-05-20T04:19:45.534Z,40.90
2019-05-20T04:22:17.026Z,34.73
2019-05-20T04:24:45.316Z,29.93
2019-05-20T04:27:13.592Z,30.00
2019-05-20T04:29:41.886Z,29.13
2019-05-20T04:32:10.748Z,28.65
2019-05-20T04:34:39.051Z,29.10
2019-05-20T04:37:07.320Z,30.48
2019-05-20T04:39:35.621Z,30.23
2019-05-20T04:42:07.239Z,28.40
2019-05-20T04:44:35.646Z,25.20
2019-05-20T04:47:03.910Z,33.85
2019-05-20T04:49:32.217Z,25.07
2019-05-20T04:52:00.524Z,25.73
2019-05-20T04:54:28.810Z,23.35
2019-05-20T04:56:57.098Z,20.37
2019-05-20T04:59:25.394Z,21.37
2019-05-20T05:01:53.695Z,29.23
2019-05-20T05:04:21.985Z,25.33
2019-05-20T05:06:50.259Z,27.60
2019-05-20T05:09:18.635Z,27.00
2019-05-20T05:11:46.885Z,25.70
2019-05-20T05:14:16.999Z,18.37
2019-05-20T05:16:46.947Z,22.25
2019-05-20T05:19:15.910Z,21.00
2019-05-20T05:21:44.248Z,18.20
2019-05-20T05:24:12.622Z,19.95
2019-05-20T05:26:42.038Z,19.00
2019-05-20T05:29:11.605Z,19.57
2019-05-20T05:31:39.939Z,21.53
2019-05-20T05:34:08.988Z,21.97
2019-05-20T05:36:37.298Z,20.62
2019-05-20T05:39:06.831Z,24.20
2019-05-20T05:41:35.169Z,21.67
2019-05-20T05:44:03.509Z,20.87
2019-05-20T05:46:31.863Z,16.43
2019-05-20T05:49:00.290Z,19.00
2019-05-20T05:51:28.635Z,21.37
2019-05-20T05:53:56.918Z,22.20
2019-05-20T05:56:25.567Z,22.50
2019-05-20T05:58:54.417Z,22.80
2019-05-20T06:01:22.789Z,17.67
2019-05-20T06:03:52.706Z,18.13
2019-05-20T06:06:21.090Z,18.07
2019-05-20T06:08:49.424Z,17.60
2019-05-20T06:11:17.794Z,18.40
2019-05-20T06:13:46.919Z,20.18
2019-05-20T06:16:15.625Z,20.75
2019-05-20T06:18:43.941Z,15.37
2019-05-20T06:21:12.266Z,16.40
2019-05-20T06:23:42.978Z,25.95
2019-05-20T06:26:11.391Z,15.70
2019-05-20T06:28:39.826Z,18.30
2019-05-20T06:31:08.425Z,17.77
2019-05-20T06:33:36.836Z,23.17
2019-05-20T06:36:05.215Z,20.82
2019-05-20T06:38:35.219Z,16.90
2019-05-20T06:41:04.966Z,16.80
2019-05-20T06:43:33.373Z,21.70
2019-05-20T06:46:02.103Z,19.90
2019-05-20T06:48:30.439Z,18.90
2019-05-20T06:50:58.777Z,17.10
2019-05-20T06:53:28.216Z,18.05
2019-05-20T06:55:56.455Z,16.33
2019-05-20T06:58:24.831Z,16.15
2019-05-20T07:00:53.172Z,15.38
2019-05-20T07:03:21.568Z,17.77
2019-05-20T07:05:49.864Z,17.77
2019-05-20T07:08:18.239Z,20.07
2019-05-20T07:10:48.849Z,17.50
2019-05-20T07:13:17.196Z,17.40
2019-05-20T07:15:45.579Z,18.77
2019-05-20T07:18:13.925Z,16.40
2019-05-20T07:20:42.339Z,18.92
2019-05-20T07:23:11.519Z,17.70
2019-05-20T07:25:39.889Z,19.17
2019-05-20T07:28:08.203Z,17.10
2019-05-20T07:30:37.895Z,19.43
2019-05-20T07:33:06.200Z,18.83
2019-05-20T07:35:34.694Z,18.17
2019-05-20T07:38:03.053Z,18.40
2019-05-20T07:40:32.375Z,18.45
2019-05-20T07:43:02.146Z,17.45
2019-05-20T07:45:34.324Z,17.40
2019-05-20T07:48:03.235Z,17.40
2019-05-20T07:50:31.750Z,15.93
2019-05-20T07:53:00.705Z,15.93
2019-05-20T07:55:30.885Z,16.60
2019-05-20T07:58:04.605Z,16.43
2019-05-20T08:00:32.966Z,16.73
2019-05-20T08:03:01.283Z,17.40
2019-05-20T08:05:31.198Z,15.37
2019-05-20T08:07:59.724Z,14.83
2019-05-20T08:10:28.073Z,15.90
2019-05-20T08:12:56.466Z,14.70
2019-05-20T08:15:24.779Z,18.37
2019-05-20T08:17:53.858Z,15.93
2019-05-20T08:20:22.628Z,15.67
2019-05-20T08:22:50.993Z,16.70
2019-05-20T08:25:20.208Z,15.93
2019-05-20T08:27:50.998Z,15.93
2019-05-20T08:30:23.753Z,17.48
2019-05-20T08:32:52.104Z,17.80
2019-05-20T08:35:23.664Z,18.47
2019-05-20T08:37:50.991Z,16.97
2019-05-20T08:40:19.337Z,18.40
2019-05-20T08:42:47.641Z,18.40
2019-05-20T08:45:16.087Z,18.93
2019-05-20T08:47:44.415Z,17.73
2019-05-20T08:50:16.231Z,17.77
2019-05-20T08:52:43.184Z,16.53
2019-05-20T08:55:13.777Z,17.27
2019-05-20T08:57:43.775Z,16.47
2019-05-20T09:00:23.577Z,16.83
2019-05-20T09:02:51.372Z,16.93
2019-05-20T09:05:19.685Z,15.00
2019-05-20T09:08:01.436Z,18.02
2019-05-20T09:10:21.778Z,15.65
2019-05-20T09:12:51.403Z,14.77
2019-05-20T09:15:20.716Z,15.87
2019-05-20T09:17:49.113Z,13.77
2019-05-20T09:20:20.205Z,14.90
2019-05-20T09:22:48.564Z,14.20
2019-05-20T09:25:18.694Z,14.73
2019-05-20T09:27:47.737Z,15.67
2019-05-20T09:30:16.192Z,15.67
2019-05-20T09:32:44.555Z,14.55
2019-05-20T09:35:13.398Z,15.10
2019-05-20T09:37:41.743Z,14.93
2019-05-20T09:40:10.756Z,18.07
2019-05-20T09:42:41.041Z,13.60
2019-05-20T09:45:09.710Z,15.20
2019-05-20T09:47:38.418Z,14.20
2019-05-20T09:50:08.671Z,12.93
2019-05-20T09:52:37.877Z,12.85
2019-05-20T09:55:09.001Z,13.55
2019-05-20T09:57:38.102Z,12.80
2019-05-20T10:00:13.793Z,12.53
2019-05-20T10:02:43.132Z,10.77
2019-05-20T10:05:11.648Z,10.93
2019-05-20T10:07:39.991Z,14.70
2019-05-20T10:10:08.787Z,13.47
2019-05-20T10:12:46.188Z,13.40
2019-05-20T10:15:09.215Z,14.70
2019-05-20T10:17:37.495Z,13.70
2019-05-20T10:20:08.018Z,14.60
2019-05-20T10:22:38.924Z,11.80
2019-05-20T10:25:11.145Z,12.50
2019-05-20T10:27:41.779Z,9.47
2019-05-20T10:30:15.118Z,11.57
2019-05-20T10:32:43.541Z,11.83
2019-05-20T10:35:15.448Z,10.73
2019-05-20T10:37:43.852Z,12.53
2019-05-20T10:40:12.386Z,11.27
2019-05-20T10:42:43.185Z,11.20
2019-05-20T10:45:11.782Z,12.60
2019-05-20T10:47:41.379Z,13.40
2019-05-20T10:50:09.892Z,12.47
2019-05-20T10:52:38.191Z,11.80
2019-05-20T10:55:07.992Z,10.53
2019-05-20T10:57:37.379Z,11.50
2019-05-20T11:00:07.285Z,12.90
2019-05-20T11:02:35.577Z,10.25
2019-05-20T11:05:07.177Z,11.90
2019-05-20T11:07:39.627Z,10.90
2019-05-20T11:10:11.593Z,11.53
2019-05-20T11:12:39.873Z,9.13
2019-05-20T11:15:09.139Z,9.70
2019-05-20T11:17:38.617Z,9.50
2019-05-20T11:20:10.442Z,9.07
2019-05-20T11:22:38.713Z,9.70
2019-05-20T11:25:09.608Z,9.27
2019-05-20T11:27:37.881Z,9.87
2019-05-20T11:30:09.980Z,9.18
2019-05-20T11:32:39.581Z,10.38
2019-05-20T11:35:09.402Z,9.90
2019-05-20T11:37:37.690Z,10.17
2019-05-20T11:40:09.635Z,10.90
2019-05-20T11:42:40.051Z,12.43
2019-05-20T11:45:09.355Z,11.00
2019-05-20T11:47:37.638Z,11.23
2019-05-20T11:50:09.281Z,13.57
2019-05-20T11:52:41.203Z,11.40
2019-05-20T11:55:13.114Z,14.40
2019-05-20T11:57:41.385Z,12.60
2019-05-20T12:00:14.656Z,12.90
2019-05-20T12:02:44.338Z,15.05
2019-05-20T12:05:14.647Z,14.77
2019-05-20T12:07:45.972Z,13.07
2019-05-20T12:10:15.780Z,12.93
2019-05-20T12:12:46.276Z,12.35
2019-05-20T12:15:15.409Z,14.93
2019-05-20T12:17:44.364Z,15.53
2019-05-20T12:20:12.963Z,13.38
2019-05-20T12:22:52.809Z,12.47
2019-05-20T12:25:21.087Z,14.43
2019-05-20T12:27:49.425Z,13.57
2019-05-20T12:30:17.707Z,13.13
2019-05-20T12:32:46.228Z,13.40
2019-05-20T12:35:14.708Z,15.17
2019-05-20T12:37:45.690Z,15.00
2019-05-20T12:40:13.286Z,14.33
2019-05-20T12:42:44.324Z,14.23
2019-05-20T12:45:15.417Z,13.97
2019-05-20T12:47:43.716Z,15.50
2019-05-20T12:50:14.778Z,13.40
2019-05-20T12:52:46.176Z,14.73
2019-05-20T12:55:14.546Z,15.90
2019-05-20T12:57:45.303Z,14.13
2019-05-20T13:00:17.122Z,13.40
2019-05-20T13:02:45.541Z,14.80
2019-05-20T13:05:14.603Z,13.80
2019-05-20T13:07:43.541Z,14.70
2019-05-20T13:10:29.240Z,14.97
2019-05-20T13:12:44.264Z,14.90
2019-05-20T13:15:14.336Z,15.20
2019-05-20T13:17:45.416Z,15.57
2019-05-20T13:20:19.103Z,13.65
2019-05-20T13:22:47.314Z,14.93
2019-05-20T13:25:15.673Z,14.50
2019-05-20T13:27:45.620Z,14.87
2019-05-20T13:30:14.284Z,14.87
2019-05-20T13:32:42.786Z,14.90
2019-05-20T13:35:11.383Z,13.90
2019-05-20T13:37:40.926Z,15.18
2019-05-20T13:40:12.131Z,14.47
2019-05-20T13:42:40.451Z,14.77
2019-05-20T13:45:11.335Z,15.87
2019-05-20T13:47:39.623Z,14.20
2019-05-20T13:50:08.985Z,15.77
2019-05-20T13:52:39.186Z,15.27
2019-05-20T13:55:10.005Z,14.40
2019-05-20T13:57:40.629Z,14.67
2019-05-20T14:00:09.577Z,15.70
2019-05-20T14:02:38.044Z,15.53
2019-05-20T14:05:06.561Z,15.50
2019-05-20T14:07:38.219Z,15.37
2019-05-20T14:10:08.304Z,16.40
2019-05-20T14:12:36.583Z,16.10
2019-05-20T14:15:06.275Z,14.75
2019-05-20T14:17:37.211Z,14.30
2019-05-20T14:20:06.743Z,16.23
2019-05-20T14:22:36.648Z,14.30
2019-05-20T14:25:06.620Z,16.37
2019-05-20T14:27:34.890Z,15.33
2019-05-20T14:30:05.183Z,19.13
2019-05-20T14:32:33.541Z,16.10
2019-05-20T14:35:14.131Z,16.67
2019-05-20T14:37:42.424Z,15.97
2019-05-20T14:40:10.859Z,16.90
2019-05-20T14:42:39.617Z,16.55
2019-05-20T14:45:08.076Z,17.85
2019-05-20T14:47:38.845Z,16.80
2019-05-20T14:50:07.962Z,17.50
2019-05-20T14:52:40.010Z,16.90
2019-05-20T14:55:08.571Z,16.87
2019-05-20T14:57:36.936Z,17.10
2019-05-20T15:00:12.984Z,15.03
2019-05-20T15:02:41.278Z,16.17
2019-05-20T15:05:15.062Z,16.80
2019-05-20T15:07:43.796Z,16.00
2019-05-20T15:10:15.531Z,17.03
2019-05-20T15:12:44.643Z,15.87
2019-05-20T15:15:14.900Z,16.87
2019-05-20T15:17:47.459Z,16.20
2019-05-20T15:20:16.906Z,15.23
2019-05-20T15:22:46.134Z,17.27
2019-05-20T15:25:15.825Z,15.85
2019-05-20T15:27:45.955Z,15.70
2019-05-20T15:30:14.613Z,16.13
2019-05-20T15:32:42.957Z,16.90
2019-05-20T15:35:12.767Z,15.93
2019-05-20T15:37:41.073Z,15.03
2019-05-20T15:40:11.112Z,16.60
2019-05-20T15:42:39.435Z,16.30
2019-05-20T15:45:11.910Z,15.10
2019-05-20T15:47:42.144Z,15.00
2019-05-20T15:50:12.357Z,15.67
2019-05-20T15:52:40.668Z,15.70
2019-05-20T15:55:09.294Z,14.10
2019-05-20T15:57:38.126Z,15.13
2019-05-20T16:00:08.360Z,15.17
2019-05-20T16:02:39.933Z,13.25
2019-05-20T16:05:08.512Z,14.03
2019-05-20T16:07:36.879Z,15.00
2019-05-20T16:10:09.339Z,13.40
2019-05-20T16:12:39.269Z,14.63
2019-05-20T16:15:10.298Z,14.57
2019-05-20T16:17:47.995Z,13.65
2019-05-20T16:20:15.928Z,13.60
2019-05-20T16:22:44.395Z,13.93
2019-05-20T16:25:17.495Z,13.40
2019-05-20T16:27:45.813Z,14.50
2019-05-20T16:30:14.748Z,13.77
2019-05-20T16:32:43.619Z,14.57
2019-05-20T16:35:11.935Z,13.43
2019-05-20T16:37:42.706Z,16.85
2019-05-20T16:40:11.508Z,14.27
2019-05-20T16:42:43.269Z,15.80
2019-05-20T16:45:12.434Z,14.57
2019-05-20T16:47:40.934Z,14.70
2019-05-20T16:50:10.402Z,14.93
2019-05-20T16:52:38.763Z,13.30
2019-05-20T16:55:08.043Z,15.23
2019-05-20T16:57:37.931Z,12.70
2019-05-20T17:00:27.401Z,12.93
2019-05-20T17:02:37.877Z,12.83
2019-05-20T17:05:06.726Z,14.03
2019-05-20T17:07:35.011Z,14.03
2019-05-20T17:10:05.168Z,12.67
2019-05-20T17:12:33.471Z,12.23
2019-05-20T17:15:02.264Z,12.13
2019-05-20T17:17:30.554Z,11.63
2019-05-20T17:20:01.779Z,12.60
2019-05-20T17:22:31.043Z,12.53
2019-05-20T17:25:02.004Z,12.30
2019-05-20T17:27:31.604Z,13.00
2019-05-20T17:30:03.575Z,11.60
2019-05-20T17:32:32.333Z,12.07
2019-05-20T17:35:00.731Z,11.43
2019-05-20T17:37:29.130Z,10.70
2019-05-20T17:39:57.434Z,12.77
2019-05-20T17:42:25.811Z,12.07
2019-05-20T17:44:54.582Z,11.90
2019-05-20T17:47:22.866Z,10.20
2019-05-20T17:49:51.149Z,10.70
2019-05-20T17:52:20.376Z,10.83
2019-05-20T17:54:48.733Z,11.47
2019-05-20T17:57:18.699Z,10.20
2019-05-20T17:59:46.991Z,10.50
2019-05-20T18:02:15.316Z,12.33
2019-05-20T18:04:43.910Z,11.13
2019-05-20T18:07:12.229Z,10.40
2019-05-20T18:09:42.167Z,10.63
2019-05-20T18:12:10.530Z,12.00
2019-05-20T18:14:38.989Z,10.60
2019-05-20T18:17:07.291Z,11.70
2019-05-20T18:19:37.276Z,12.30
2019-05-20T18:22:05.580Z,16.43
2019-05-20T18:24:33.956Z,12.50
2019-05-20T18:27:02.283Z,11.63
2019-05-20T18:29:34.035Z,11.10
2019-05-20T18:32:02.398Z,11.00
2019-05-20T18:34:30.721Z,11.97
2019-05-20T18:36:59.003Z,11.23
2019-05-20T18:39:27.274Z,10.38
2019-05-20T18:41:56.295Z,9.17
2019-05-20T18:44:25.656Z,9.30
2019-05-20T18:46:53.998Z,12.43
2019-05-20T18:49:22.334Z,7.95
2019-05-20T18:51:50.655Z,8.63
2019-05-20T18:54:23.328Z,9.65
2019-05-20T18:56:53.686Z,9.55
2019-05-20T18:59:21.998Z,8.80
2019-05-20T19:02:04.682Z,10.03
2019-05-20T19:04:21.038Z,9.70
2019-05-20T19:06:49.421Z,9.10
2019-05-20T19:09:18.166Z,9.45
2019-05-20T19:11:48.123Z,9.27
2019-05-20T19:14:16.419Z,10.13
2019-05-20T19:16:44.804Z,9.50
2019-05-20T19:19:13.202Z,10.82
2019-05-20T19:21:41.507Z,10.37
2019-05-20T19:24:09.862Z,11.17
2019-05-20T19:26:38.208Z,14.40
2019-05-20T19:29:06.552Z,12.80
2019-05-20T19:31:36.028Z,12.70
2019-05-20T19:34:05.396Z,14.87
2019-05-20T19:36:33.757Z,13.53
2019-05-20T19:39:02.820Z,13.97
2019-05-20T19:41:31.128Z,14.30
2019-05-20T19:43:59.459Z,15.70
2019-05-20T19:46:27.819Z,15.87
2019-05-20T19:48:56.143Z,13.70
2019-05-20T19:51:25.724Z,15.53
2019-05-20T19:53:56.618Z,16.75
2019-05-20T19:56:24.909Z,14.70
2019-05-20T19:58:53.244Z,15.88
2019-05-20T20:01:21.706Z,13.67
2019-05-20T20:03:52.983Z,15.70
2019-05-20T20:06:25.901Z,16.50
2019-05-20T20:08:54.233Z,14.30
2019-05-20T20:11:22.508Z,14.60
2019-05-20T20:13:50.797Z,16.20
2019-05-20T20:16:19.097Z,13.17
2019-05-20T20:18:47.387Z,13.90
2019-05-20T20:21:16.412Z,13.88
2019-05-20T20:23:44.707Z,15.08
2019-05-20T20:26:13.007Z,15.30
2019-05-20T20:28:41.318Z,16.00
2019-05-20T20:31:11.066Z,16.50
2019-05-20T20:33:39.866Z,15.90
2019-05-20T20:36:08.162Z,15.90
2019-05-20T20:38:36.448Z,15.67
2019-05-20T20:41:04.748Z,14.37
2019-05-20T20:43:33.037Z,13.67
2019-05-20T20:46:01.428Z,15.23
2019-05-20T20:48:29.698Z,14.83
2019-05-20T20:50:57.982Z,15.67
2019-05-20T20:53:26.276Z,17.03
2019-05-20T20:55:54.552Z,16.70
2019-05-20T20:58:22.850Z,15.97
2019-05-20T21:00:51.158Z,14.23
2019-05-20T21:03:19.454Z,13.53
2019-05-20T21:05:47.761Z,14.33
2019-05-20T21:08:16.058Z,15.03
2019-05-20T21:10:44.338Z,13.87
2019-05-20T21:13:12.628Z,14.40
2019-05-20T21:15:40.901Z,14.80
2019-05-20T21:18:09.205Z,13.20
2019-05-20T21:20:37.499Z,13.70
2019-05-20T21:23:05.805Z,12.20
2019-05-20T21:25:34.080Z,11.70
2019-05-20T21:28:02.378Z,12.03
2019-05-20T21:30:30.657Z,12.40
2019-05-20T21:33:08.720Z,11.47
2019-05-20T21:35:28.969Z,12.47
2019-05-20T21:37:57.250Z,11.87
2019-05-20T21:40:25.537Z,10.78
2019-05-20T21:42:53.817Z,10.63
2019-05-20T21:45:22.138Z,10.90
2019-05-20T21:47:50.400Z,10.63
2019-05-20T21:50:18.709Z,11.30
2019-05-20T21:52:46.992Z,10.97
2019-05-20T21:55:15.278Z,10.63
2019-05-20T21:57:43.552Z,10.47
2019-05-20T22:00:13.553Z,9.60
2019-05-20T22:02:41.830Z,10.20
2019-05-20T22:05:10.461Z,9.90
2019-05-20T22:07:38.799Z,11.10
2019-05-20T22:10:07.484Z,10.32
2019-05-20T22:12:35.783Z,10.68
2019-05-20T22:15:06.191Z,10.53
2019-05-20T22:17:34.478Z,10.05
2019-05-20T22:20:02.833Z,10.32
2019-05-20T22:22:32.753Z,9.78
2019-05-20T22:25:01.145Z,9.47
2019-05-20T22:27:29.381Z,9.23
2019-05-20T22:29:57.675Z,9.43
2019-05-20T22:32:25.982Z,9.35
2019-05-20T22:34:54.252Z,9.75
2019-05-20T22:37:22.572Z,10.30
2019-05-20T22:39:50.849Z,9.07
2019-05-20T22:42:19.152Z,9.13
2019-05-20T22:44:47.428Z,8.67
2019-05-20T22:47:15.732Z,9.40
2019-05-20T22:49:44.035Z,8.33
2019-05-20T22:52:12.312Z,8.67
2019-05-20T22:54:40.619Z,8.70
2019-05-20T22:57:08.938Z,8.50
2019-05-20T22:59:37.203Z,7.63
2019-05-20T23:02:05.497Z,7.03
2019-05-20T23:04:33.776Z,7.77
2019-05-20T23:07:02.068Z,8.38
2019-05-20T23:09:30.335Z,7.80
2019-05-20T23:12:01.346Z,7.57
2019-05-20T23:14:29.635Z,7.62
2019-05-20T23:16:57.937Z,8.30
2019-05-20T23:19:26.211Z,7.10
2019-05-20T23:21:54.510Z,7.03
2019-05-20T23:24:22.816Z,7.60
2019-05-20T23:26:51.161Z,6.63
2019-05-20T23:29:19.469Z,6.87
2019-05-20T23:31:47.748Z,6.70
2019-05-20T23:34:16.116Z,6.70
2019-05-20T23:36:44.407Z,7.30
2019-05-20T23:39:12.724Z,7.67
2019-05-20T23:41:40.997Z,6.50
2019-05-20T23:44:09.284Z,7.80
2019-05-20T23:46:37.655Z,6.33
2019-05-20T23:49:05.928Z,7.13
2019-05-20T23:51:34.225Z,8.40
2019-05-20T23:54:02.487Z,7.67
2019-05-20T23:56:30.799Z,7.70
2019-05-20T23:58:59.072Z,10.15
